Time;durP1;ratioP1;P1;durP2;ratioP2;P2;SDS_P1;SDS_P2;PMS_P1;PMS_P2;Temp;Humidity;BMP_temperature;BMP_pressure;BME280_temperature;BME280_humidity;BME280_pressure;Samples;Min_cycle;Max_cycle;Signal;HPM_P1;HPM_P2
2021/04/17 00:02:16;;;;;;;9.35;5.13;;;6.00;64.20;;;;;;5038449;28;20060;-72
2021/04/17 00:04:42;;;;;;;6.90;4.70;;;6.00;63.70;;;;;;5040257;28;20029;-72
2021/04/17 00:07:09;;;;;;;7.20;5.25;;;6.10;63.60;;;;;;5040314;28;20036;-72
2021/04/17 00:09:35;;;;;;;8.73;5.50;;;6.20;63.30;;;;;;5040233;28;20040;-72
2021/04/17 00:12:06;;;;;;;7.57;5.00;;;6.30;64.20;;;;;;5039866;28;20462;-72
2021/04/17 00:14:34;;;;;;;6.97;5.07;;;6.30;64.00;;;;;;5040115;28;20060;-72
2021/04/17 00:17:00;;;;;;;8.82;5.43;;;6.30;64.10;;;;;;5040121;28;20024;-72
2021/04/17 00:19:26;;;;;;;7.65;5.20;;;6.60;60.70;;;;;;5040114;28;20056;-72
2021/04/17 00:21:52;;;;;;;7.90;4.55;;;6.80;59.00;;;;;;5040065;28;20354;-72
2021/04/17 00:24:18;;;;;;;5.60;4.60;;;7.00;58.20;;;;;;5039650;28;20429;-72
2021/04/17 00:26:43;;;;;;;6.78;5.13;;;7.10;58.20;;;;;;5039513;28;20103;-72
2021/04/17 00:29:09;;;;;;;12.10;4.75;;;7.20;56.90;;;;;;5039840;28;20352;-72
2021/04/17 00:31:36;;;;;;;5.55;4.20;;;7.20;56.40;;;;;;5039545;28;20018;-72
2021/04/17 00:34:03;;;;;;;5.93;3.95;;;7.30;55.60;;;;;;5039767;28;20148;-72
2021/04/17 00:36:28;;;;;;;7.57;3.75;;;7.30;55.80;;;;;;5039473;28;20021;-72
2021/04/17 00:38:55;;;;;;;6.35;3.45;;;7.30;55.10;;;;;;5039380;28;20121;-72
2021/04/17 00:41:21;;;;;;;6.05;3.17;;;7.30;54.10;;;;;;5039696;28;20337;-72
2021/04/17 00:43:46;;;;;;;5.22;3.35;;;7.30;55.40;;;;;;5039594;28;20108;-72
2021/04/17 00:46:12;;;;;;;8.50;3.63;;;7.30;54.70;;;;;;5039568;28;20064;-72
2021/04/17 00:48:41;;;;;;;7.22;3.92;;;7.20;55.10;;;;;;5039163;28;20029;-72
2021/04/17 00:51:08;;;;;;;8.27;3.47;;;7.20;55.20;;;;;;5039511;28;20022;-72
2021/04/17 00:53:34;;;;;;;7.40;3.70;;;7.10;55.90;;;;;;5039158;28;20034;-72
2021/04/17 00:56:03;;;;;;;4.63;3.33;;;7.10;54.80;;;;;;5039394;28;20036;-72
2021/04/17 00:58:29;;;;;;;6.13;3.85;;;7.10;56.90;;;;;;5039387;28;20025;-72
2021/04/17 01:00:55;;;;;;;7.43;4.10;;;7.00;58.40;;;;;;5039342;28;20325;-72
2021/04/17 01:04:05;;;;;;;4.45;3.38;;;6.90;59.30;;;;;;5038895;28;20434;-72
2021/04/17 01:06:46;;;;;;;6.75;4.03;;;6.70;61.00;;;;;;5038570;28;20036;-72
2021/04/17 01:09:33;;;;;;;6.53;4.40;;;6.40;61.50;;;;;;5038790;28;20414;-72
2021/04/17 01:12:12;;;;;;;5.88;4.30;;;6.30;60.40;;;;;;5038481;28;20026;-72
2021/04/17 01:14:37;;;;;;;7.90;4.70;;;6.30;60.50;;;;;;5038715;28;20103;-72
2021/04/17 01:17:05;;;;;;;6.95;4.53;;;6.20;61.00;;;;;;5039034;28;20056;-72
2021/04/17 01:19:40;;;;;;;6.82;4.30;;;6.20;61.30;;;;;;5038703;28;20035;-72
2021/04/17 01:22:06;;;;;;;6.35;3.88;;;6.10;61.50;;;;;;5038618;28;20123;-72
2021/04/17 01:24:35;;;;;;;8.20;3.75;;;6.10;60.90;;;;;;5038644;28;20053;-72
2021/04/17 01:27:01;;;;;;;6.45;3.53;;;6.10;64.00;;;;;;5038582;28;20422;-72
2021/04/17 01:29:28;;;;;;;6.30;3.88;;;5.80;64.20;;;;;;5038734;28;20029;-72
2021/04/17 01:31:56;;;;;;;6.50;3.60;;;5.70;65.30;;;;;;5038428;28;20041;-72
2021/04/17 01:34:23;;;;;;;9.65;3.75;;;5.60;62.00;;;;;;5038657;28;20313;-72
2021/04/17 01:36:49;;;;;;;6.18;4.03;;;5.60;61.10;;;;;;5038690;28;20060;-72
2021/04/17 01:39:18;;;;;;;5.35;3.97;;;5.80;62.00;;;;;;5038305;28;20029;-72
2021/04/17 01:41:50;;;;;;;4.40;3.65;;;5.70;63.20;;;;;;5038255;28;20029;-72
2021/04/17 01:44:24;;;;;;;8.80;3.72;;;5.70;64.10;;;;;;5038170;28;20037;-72
2021/04/17 01:46:56;;;;;;;4.57;3.22;;;5.60;65.70;;;;;;5038537;28;20032;-72
2021/04/17 01:49:24;;;;;;;5.38;3.58;;;5.50;66.70;;;;;;5038076;28;20037;-72
2021/04/17 01:51:53;;;;;;;6.07;3.58;;;5.40;66.30;;;;;;5038066;28;20022;-72
2021/04/17 01:54:30;;;;;;;8.07;3.90;;;5.40;66.20;;;;;;5037833;28;20038;-72
2021/04/17 01:56:59;;;;;;;6.30;4.28;;;5.40;65.80;;;;;;5038324;28;20295;-72
2021/04/17 01:59:27;;;;;;;10.60;3.92;;;5.30;66.70;;;;;;5038224;28;20040;-72
2021/04/17 02:01:53;;;;;;;5.75;4.25;;;5.20;66.10;;;;;;5038404;28;20022;-72
2021/04/17 02:04:19;;;;;;;7.18;3.40;;;5.10;66.40;;;;;;5037766;28;20321;-72
2021/04/17 02:06:45;;;;;;;6.72;4.00;;;5.10;68.10;;;;;;5037785;28;20033;-72
2021/04/17 02:09:11;;;;;;;4.57;3.65;;;5.00;66.50;;;;;;5037988;28;20029;-72
2021/04/17 02:11:37;;;;;;;8.43;4.70;;;5.00;66.90;;;;;;5037981;28;20406;-72
2021/04/17 02:14:04;;;;;;;4.57;3.90;;;5.20;63.00;;;;;;5037819;28;20036;-72
2021/04/17 02:16:58;;;;;;;5.10;3.58;;;5.30;64.40;;;;;;5037639;28;20053;-72
2021/04/17 02:19:49;;;;;;;4.63;3.28;;;5.40;66.60;;;;;;5037840;28;20034;-72
2021/04/17 02:22:15;;;;;;;7.95;4.68;;;5.30;66.00;;;;;;5037827;28;20033;-72
2021/04/17 02:24:42;;;;;;;4.95;4.03;;;5.20;67.30;;;;;;5036868;28;20318;-72
2021/04/17 02:27:08;;;;;;;7.40;3.70;;;5.00;67.00;;;;;;5037449;28;20036;-72
2021/04/17 02:29:34;;;;;;;7.55;4.25;;;4.90;67.80;;;;;;5037613;28;20033;-72
2021/04/17 02:32:00;;;;;;;6.25;2.78;;;4.80;67.80;;;;;;5037305;28;20031;-72
2021/04/17 02:34:26;;;;;;;9.13;4.50;;;4.70;67.80;;;;;;5037531;28;20021;-72
2021/04/17 02:36:52;;;;;;;6.15;4.40;;;4.70;68.50;;;;;;5037221;28;20026;-72
2021/04/17 02:39:18;;;;;;;6.60;4.35;;;4.60;68.00;;;;;;5037550;28;20104;-72
2021/04/17 02:41:44;;;;;;;5.25;3.83;;;4.60;68.30;;;;;;5037445;28;20104;-72
2021/04/17 02:44:10;;;;;;;4.65;3.53;;;4.60;67.50;;;;;;5037311;28;20026;-72
2021/04/17 02:46:36;;;;;;;5.47;3.90;;;4.60;68.50;;;;;;5037356;28;20318;-72
2021/04/17 02:49:02;;;;;;;5.15;3.60;;;4.50;68.80;;;;;;5037202;28;20029;-72
2021/04/17 02:51:27;;;;;;;6.72;3.78;;;4.40;69.70;;;;;;5036989;28;20021;-72
2021/04/17 02:53:53;;;;;;;8.07;4.60;;;4.30;69.60;;;;;;5037009;28;20120;-72
2021/04/17 02:56:19;;;;;;;6.82;4.25;;;4.20;69.80;;;;;;5037229;28;20041;-72
2021/04/17 02:58:45;;;;;;;4.25;3.33;;;4.40;63.20;;;;;;5037232;28;20053;-72
2021/04/17 03:01:11;;;;;;;6.50;4.35;;;4.70;67.10;;;;;;5037172;28;20437;-72
2021/04/17 03:03:36;;;;;;;4.75;3.50;;;4.80;66.90;;;;;;5037046;28;20425;-72
2021/04/17 03:06:03;;;;;;;6.05;4.07;;;4.80;67.20;;;;;;5036755;28;20410;-72
2021/04/17 03:08:28;;;;;;;7.95;4.30;;;4.80;66.90;;;;;;5036662;28;20034;-72
2021/04/17 03:10:54;;;;;;;8.65;3.85;;;4.70;67.40;;;;;;5036770;28;20036;-72
2021/04/17 03:13:20;;;;;;;5.63;4.38;;;4.70;67.20;;;;;;5036622;28;20036;-72
2021/04/17 03:15:45;;;;;;;6.05;4.43;;;4.70;66.00;;;;;;5036930;28;20021;-72
2021/04/17 03:18:12;;;;;;;8.15;4.90;;;4.80;66.70;;;;;;5036948;28;20060;-72
2021/04/17 03:20:38;;;;;;;8.63;3.75;;;4.90;65.10;;;;;;5036652;28;20076;-72
2021/04/17 03:23:04;;;;;;;4.35;3.50;;;5.00;65.50;;;;;;5036865;28;20022;-72
2021/04/17 03:25:29;;;;;;;6.60;4.47;;;5.10;65.30;;;;;;5036528;28;20049;-72
2021/04/17 03:27:55;;;;;;;5.75;4.03;;;5.10;64.50;;;;;;5036861;28;20025;-72
2021/04/17 03:30:30;;;;;;;12.00;4.97;;;5.20;64.30;;;;;;5036493;28;20038;-72
2021/04/17 03:32:57;;;;;;;5.55;4.32;;;5.30;63.90;;;;;;5036925;28;20322;-72
2021/04/17 03:35:23;;;;;;;5.68;4.28;;;5.40;63.40;;;;;;5036723;28;20030;-72
2021/04/17 03:37:49;;;;;;;5.05;3.67;;;5.40;64.10;;;;;;5039824;28;20036;-72
2021/04/17 03:40:15;;;;;;;7.13;4.00;;;5.40;63.80;;;;;;5040551;28;20032;-72
2021/04/17 03:42:41;;;;;;;6.93;3.78;;;5.40;64.20;;;;;;5040527;28;20040;-72
2021/04/17 03:45:07;;;;;;;6.93;3.50;;;5.30;64.10;;;;;;5040630;28;20018;-72
2021/04/17 03:47:34;;;;;;;5.65;4.32;;;5.30;64.90;;;;;;5040374;28;20116;-72
2021/04/17 03:50:00;;;;;;;5.78;3.75;;;5.30;64.80;;;;;;5040344;28;20030;-72
2021/04/17 03:52:26;;;;;;;5.18;4.03;;;5.30;65.20;;;;;;5040358;28;20025;-72
2021/04/17 03:54:52;;;;;;;7.60;4.10;;;5.30;64.70;;;;;;5040635;28;20325;-72
2021/04/17 03:57:18;;;;;;;5.75;3.80;;;5.40;63.60;;;;;;5040252;28;20022;-72
2021/04/17 03:59:45;;;;;;;7.07;4.85;;;5.40;64.50;;;;;;5040511;28;20025;-72
2021/04/17 04:02:11;;;;;;;5.68;4.57;;;5.40;63.90;;;;;;5040440;28;20047;-72
2021/04/17 04:04:37;;;;;;;7.03;4.57;;;5.30;64.50;;;;;;5040357;28;20072;-72
2021/04/17 04:07:03;;;;;;;5.63;4.20;;;5.30;65.10;;;;;;5040371;28;20032;-72
2021/04/17 04:09:30;;;;;;;6.97;4.95;;;5.30;65.10;;;;;;5040228;28;20022;-72
2021/04/17 04:11:56;;;;;;;5.70;4.32;;;5.20;64.10;;;;;;5039929;28;20040;-72
2021/04/17 04:14:22;;;;;;;5.65;4.38;;;5.30;64.00;;;;;;5039812;28;20030;-72
2021/04/17 04:16:48;;;;;;;7.05;4.47;;;5.30;65.50;;;;;;5039894;28;20021;-72
2021/04/17 04:19:14;;;;;;;6.40;4.35;;;5.20;65.10;;;;;;5039807;28;20076;-72
2021/04/17 04:21:39;;;;;;;5.35;3.70;;;5.20;64.70;;;;;;5040067;28;20037;-72
2021/04/17 04:24:05;;;;;;;6.18;4.35;;;5.20;64.40;;;;;;5039555;28;20037;-72
2021/04/17 04:26:31;;;;;;;8.85;5.13;;;5.30;65.70;;;;;;5039503;28;20123;-72
2021/04/17 04:28:57;;;;;;;8.30;5.15;;;5.30;63.30;;;;;;5039841;28;20429;-72
2021/04/17 04:31:22;;;;;;;8.27;5.47;;;5.30;64.20;;;;;;5039575;28;20322;-72
2021/04/17 04:33:48;;;;;;;9.98;5.95;;;5.30;63.90;;;;;;5039791;28;20022;-72
2021/04/17 04:36:14;;;;;;;8.10;5.82;;;5.40;60.30;;;;;;5039815;28;20045;-72
2021/04/17 04:38:39;;;;;;;8.57;4.70;;;5.50;62.40;;;;;;5039773;28;20033;-72
2021/04/17 04:41:05;;;;;;;6.68;4.72;;;5.50;63.60;;;;;;5039718;28;20038;-72
2021/04/17 04:43:31;;;;;;;9.43;4.07;;;5.40;64.20;;;;;;5039661;28;20037;-72
2021/04/17 04:45:56;;;;;;;6.82;4.50;;;5.40;64.00;;;;;;5039625;28;20432;-72
2021/04/17 04:48:22;;;;;;;5.78;4.82;;;5.30;65.40;;;;;;5038601;28;20108;-72
2021/04/17 04:50:47;;;;;;;5.88;3.75;;;5.30;65.90;;;;;;5039549;28;20117;-72
2021/04/17 04:53:13;;;;;;;4.55;3.90;;;5.30;66.30;;;;;;5039237;28;20033;-72
2021/04/17 04:55:39;;;;;;;6.68;3.83;;;5.10;66.80;;;;;;5039409;28;20029;-72
2021/04/17 04:58:04;;;;;;;5.47;3.92;;;5.00;67.30;;;;;;5039410;28;20412;-72
2021/04/17 05:00:30;;;;;;;6.10;3.30;;;4.90;66.80;;;;;;5039417;28;20036;-72
2021/04/17 05:02:56;;;;;;;5.10;3.35;;;4.80;67.80;;;;;;5039299;28;20033;-72
2021/04/17 05:05:21;;;;;;;6.47;3.90;;;4.70;68.90;;;;;;5039211;28;20040;-72
2021/04/17 05:07:47;;;;;;;4.32;3.70;;;4.60;68.10;;;;;;5039284;28;20036;-72
2021/04/17 05:10:13;;;;;;;5.20;3.67;;;4.70;67.50;;;;;;5039108;28;20025;-72
2021/04/17 05:12:39;;;;;;;4.97;3.67;;;4.80;68.00;;;;;;5038832;28;20326;-72
2021/04/17 05:15:05;;;;;;;12.95;4.78;;;4.80;68.90;;;;;;5039008;28;20049;-72
2021/04/17 05:17:31;;;;;;;22.88;5.20;;;4.80;68.80;;;;;;5039065;28;20025;-72
2021/04/17 05:19:57;;;;;;;6.78;4.47;;;5.00;69.00;;;;;;5039098;28;20032;-72
2021/04/17 05:22:23;;;;;;;5.72;4.30;;;5.10;68.40;;;;;;5038672;28;20079;-72
2021/04/17 05:24:52;;;;;;;8.68;4.72;;;5.10;69.30;;;;;;5038758;28;20061;-72
2021/04/17 05:27:18;;;;;;;11.00;4.60;;;5.20;68.20;;;;;;5038888;28;20029;-72
2021/04/17 05:29:44;;;;;;;7.75;4.32;;;5.20;68.70;;;;;;5038808;28;20033;-72
2021/04/17 05:32:10;;;;;;;6.60;4.50;;;5.30;67.30;;;;;;5038503;28;20108;-72
2021/04/17 05:34:36;;;;;;;5.65;4.05;;;5.30;67.80;;;;;;5038381;28;20068;-72
2021/04/17 05:37:02;;;;;;;7.35;4.68;;;5.30;69.50;;;;;;5038653;28;20033;-72
2021/04/17 05:39:27;;;;;;;6.82;4.53;;;5.30;68.30;;;;;;5038672;28;20091;-72
2021/04/17 05:41:53;;;;;;;7.43;4.32;;;5.40;66.90;;;;;;5038597;28;20033;-72
2021/04/17 05:44:19;;;;;;;5.72;4.50;;;5.50;68.10;;;;;;5038156;28;20029;-72
2021/04/17 05:46:45;;;;;;;9.88;4.68;;;5.60;67.20;;;;;;5038239;28;20033;-72
2021/04/17 05:49:12;;;;;;;7.70;5.07;;;5.60;69.40;;;;;;5038390;28;20056;-72
2021/04/17 05:51:40;;;;;;;7.65;4.72;;;5.70;66.70;;;;;;5038404;28;20048;-72
2021/04/17 05:54:07;;;;;;;8.70;4.93;;;5.90;67.80;;;;;;5038026;28;20033;-72
2021/04/17 05:56:33;;;;;;;8.52;5.05;;;6.00;64.80;;;;;;5038223;28;20096;-72
2021/04/17 05:58:59;;;;;;;9.10;4.38;;;6.20;61.30;;;;;;5037069;28;20477;-72
2021/04/17 06:01:25;;;;;;;7.70;5.25;;;6.30;63.10;;;;;;5037940;28;20060;-72
2021/04/17 06:03:51;;;;;;;10.43;4.70;;;6.40;63.80;;;;;;5037777;28;20065;-72
2021/04/17 06:06:18;;;;;;;6.50;4.75;;;6.50;61.80;;;;;;5038151;28;20083;-72
2021/04/17 06:08:44;;;;;;;8.43;5.40;;;6.50;61.60;;;;;;5037980;28;20022;-72
2021/04/17 06:11:09;;;;;;;7.22;5.65;;;6.60;59.20;;;;;;5038049;28;20406;-72
2021/04/17 06:13:36;;;;;;;8.50;5.60;;;6.70;59.80;;;;;;5037955;28;20018;-72
2021/04/17 06:16:04;;;;;;;13.05;5.18;;;6.80;61.60;;;;;;5037867;28;20037;-72
2021/04/17 06:18:30;;;;;;;5.93;4.63;;;6.80;59.30;;;;;;5037595;28;20481;-72
2021/04/17 06:20:56;;;;;;;6.72;5.15;;;6.90;60.10;;;;;;5037528;28;20121;-72
2021/04/17 06:23:21;;;;;;;5.63;4.88;;;7.00;58.30;;;;;;5037682;28;20049;-72
2021/04/17 06:25:47;;;;;;;9.55;5.30;;;7.10;58.90;;;;;;5037161;28;20433;-72
2021/04/17 06:28:13;;;;;;;10.23;5.95;;;7.20;58.30;;;;;;5037645;28;20072;-72
2021/04/17 06:30:39;;;;;;;7.75;5.57;;;7.30;57.60;;;;;;5037311;28;20034;-72
2021/04/17 06:33:05;;;;;;;10.38;5.30;;;7.40;59.50;;;;;;5037601;28;20105;-72
2021/04/17 06:35:31;;;;;;;8.18;5.78;;;7.50;56.50;;;;;;5037195;28;20028;-72
2021/04/17 06:37:57;;;;;;;7.05;5.40;;;7.70;55.80;;;;;;5037544;28;20318;-72
2021/04/17 06:40:23;;;;;;;9.55;5.90;;;8.00;56.20;;;;;;5037547;28;20037;-72
2021/04/17 06:42:52;;;;;;;8.77;4.88;;;8.10;57.40;;;;;;5037460;28;20409;-72
2021/04/17 06:45:21;;;;;;;8.68;5.13;;;8.30;57.00;;;;;;5037026;28;20029;-72
2021/04/17 06:47:48;;;;;;;11.57;5.78;;;8.40;56.00;;;;;;5037082;28;20026;-72
2021/04/17 06:50:14;;;;;;;8.80;6.03;;;8.60;56.90;;;;;;5036946;28;20117;-72
2021/04/17 06:52:41;;;;;;;7.68;5.32;;;8.80;55.20;;;;;;5037032;28;20432;-72
2021/04/17 06:55:10;;;;;;;8.38;4.78;;;8.90;54.90;;;;;;5037325;28;20113;-72
2021/04/17 06:57:36;;;;;;;8.35;5.07;;;8.80;54.30;;;;;;5036912;28;20430;-72
2021/04/17 07:00:05;;;;;;;7.97;5.90;;;8.80;56.20;;;;;;5036917;28;20022;-72
2021/04/17 07:02:31;;;;;;;8.60;5.50;;;8.70;55.90;;;;;;5037160;28;20420;-72
2021/04/17 07:04:56;;;;;;;6.32;4.80;;;8.60;54.90;;;;;;5037092;28;20036;-72
2021/04/17 07:07:22;;;;;;;7.50;5.40;;;8.60;56.50;;;;;;5037094;28;20318;-72
2021/04/17 07:09:47;;;;;;;7.63;5.45;;;8.70;54.70;;;;;;5035555;28;20331;-72
2021/04/17 07:12:14;;;;;;;7.00;4.90;;;9.00;56.40;;;;;;5036702;28;20049;-72
2021/04/17 07:14:49;;;;;;;6.93;5.03;;;9.50;56.60;;;;;;5036632;28;20022;-72
2021/04/17 07:17:16;;;;;;;6.83;5.07;;;10.10;53.90;;;;;;5037055;28;20067;-72
2021/04/17 07:19:56;;;;;;;7.10;5.30;;;10.80;52.80;;;;;;5037033;28;20029;-72
2021/04/17 07:22:22;;;;;;;9.57;5.50;;;11.20;50.70;;;;;;5036914;28;20029;-72
2021/04/17 07:24:50;;;;;;;8.00;5.60;;;11.20;49.80;;;;;;5036295;28;21200;-72
2021/04/17 07:27:32;;;;;;;12.07;5.20;;;11.30;51.00;;;;;;5036907;28;20113;-72
2021/04/17 07:30:00;;;;;;;7.50;4.88;;;11.40;50.70;;;;;;5036807;28;20029;-72
2021/04/17 07:32:26;;;;;;;7.85;5.70;;;11.70;51.60;;;;;;5036788;28;20021;-72
2021/04/17 07:35:08;;;;;;;7.63;5.25;;;12.00;48.60;;;;;;5036756;28;20317;-72
2021/04/17 07:37:35;;;;;;;7.47;5.57;;;12.20;46.90;;;;;;5036806;28;20017;-72
2021/04/17 07:40:18;;;;;;;7.15;5.35;;;12.40;48.80;;;;;;5036476;28;20037;-72
2021/04/17 07:42:46;;;;;;;7.88;5.43;;;12.80;49.40;;;;;;5036726;28;20041;-72
2021/04/17 07:45:22;;;;;;;6.55;4.95;;;13.20;48.30;;;;;;5036649;28;20053;-72
2021/04/17 07:47:48;;;;;;;7.57;5.20;;;13.50;45.40;;;;;;5036384;28;20406;-72
2021/04/17 07:50:15;;;;;;;6.88;5.13;;;13.50;46.00;;;;;;5036290;28;20030;-73
2021/04/17 07:52:41;;;;;;;7.53;4.28;;;13.80;46.90;;;;;;5036643;28;20025;-72
2021/04/17 07:55:13;;;;;;;8.30;4.53;;;14.00;46.40;;;;;;5036761;28;20033;-72
2021/04/17 07:57:54;;;;;;;13.10;4.53;;;14.10;46.80;;;;;;5036370;28;20053;-72
2021/04/17 08:00:23;;;;;;;5.97;4.93;;;14.00;46.60;;;;;;5036583;28;20025;-72
2021/04/17 08:02:52;;;;;;;8.48;5.30;;;14.00;46.90;;;;;;5036299;28;20099;-72
2021/04/17 08:05:19;;;;;;;8.13;4.95;;;13.90;46.00;;;;;;5036175;28;20487;-72
2021/04/17 08:07:45;;;;;;;8.02;5.22;;;13.90;45.70;;;;;;5036534;28;20104;-72
2021/04/17 08:10:12;;;;;;;7.03;5.03;;;14.00;48.10;;;;;;5036201;28;20436;-72
2021/04/17 08:12:41;;;;;;;5.97;4.93;;;13.90;46.60;;;;;;5036176;28;20032;-72
2021/04/17 08:15:13;;;;;;;5.82;4.75;;;13.70;47.80;;;;;;5036391;28;20025;-72
2021/04/17 08:17:40;;;;;;;7.75;4.50;;;13.80;49.50;;;;;;5036474;28;20026;-72
2021/04/17 08:20:12;;;;;;;9.15;5.55;;;14.10;48.10;;;;;;5036110;28;20120;-72
2021/04/17 08:22:39;;;;;;;7.18;4.93;;;14.30;47.60;;;;;;5037174;28;20480;-72
2021/04/17 08:25:07;;;;;;;6.28;5.22;;;14.30;47.90;;;;;;5039775;28;20167;-72
2021/04/17 08:27:34;;;;;;;6.60;5.15;;;14.40;46.80;;;;;;5039938;28;20053;-72
2021/04/17 08:30:09;;;;;;;6.15;5.07;;;14.30;45.40;;;;;;5039891;28;20040;-72
2021/04/17 08:32:39;;;;;;;8.25;5.13;;;13.90;46.30;;;;;;5040196;28;20333;-72
2021/04/17 08:35:19;;;;;;;8.07;5.68;;;13.90;46.30;;;;;;5039447;28;20018;-72
2021/04/17 08:37:54;;;;;;;7.20;4.88;;;13.80;46.40;;;;;;5039842;28;20022;-72
2021/04/17 08:40:32;;;;;;;7.63;5.23;;;13.90;47.90;;;;;;5039820;28;20026;-72
2021/04/17 08:42:59;;;;;;;8.02;5.85;;;13.90;46.20;;;;;;5039699;28;20029;-72
2021/04/17 08:45:25;;;;;;;6.68;5.65;;;14.00;45.10;;;;;;5039596;28;20017;-72
2021/04/17 08:47:52;;;;;;;6.80;5.10;;;14.10;47.70;;;;;;5039607;28;20357;-72
2021/04/17 08:50:27;;;;;;;8.82;6.00;;;14.00;47.20;;;;;;5039544;28;20116;-72
2021/04/17 08:53:11;;;;;;;6.90;5.60;;;14.00;47.40;;;;;;5039388;28;20029;-72
2021/04/17 08:55:36;;;;;;;8.07;5.82;;;14.30;48.40;;;;;;5039435;28;20100;-72
2021/04/17 08:58:20;;;;;;;11.25;5.93;;;14.40;46.90;;;;;;5039444;28;20375;-72
2021/04/17 09:00:51;;;;;;;9.32;5.60;;;14.30;44.90;;;;;;5039106;28;20021;-72
2021/04/17 09:03:43;;;;;;;12.23;5.45;;;14.10;46.00;;;;;;5039284;28;20025;-72
2021/04/17 09:06:21;;;;;;;8.07;5.43;;;13.90;46.10;;;;;;5039280;28;20096;-72
2021/04/17 09:09:19;;;;;;;7.43;4.65;;;14.10;44.20;;;;;;5039150;28;20090;-72
2021/04/17 09:11:50;;;;;;;12.68;5.22;;;14.20;45.90;;;;;;5039199;28;20037;-72
2021/04/17 09:14:28;;;;;;;8.43;5.10;;;14.20;46.50;;;;;;5038702;28;20413;-72
2021/04/17 09:17:32;;;;;;;8.43;5.47;;;13.90;47.20;;;;;;5039911;28;20281;-72
2021/04/17 09:20:03;;;;;;;6.15;5.13;;;13.30;48.20;;;;;;5038394;28;20033;-72
2021/04/17 09:22:31;;;;;;;6.25;5.22;;;13.70;50.20;;;;;;5038991;28;20032;-72
2021/04/17 09:24:59;;;;;;;9.38;5.35;;;14.50;49.80;;;;;;5038801;28;20056;-72
2021/04/17 09:27:26;;;;;;;7.53;4.93;;;14.80;46.60;;;;;;5038908;28;20148;-72
2021/04/17 09:29:58;;;;;;;7.18;5.25;;;14.70;44.30;;;;;;5038783;28;20044;-72
2021/04/17 09:32:32;;;;;;;13.50;5.90;;;14.80;46.50;;;;;;5038507;28;20075;-72
2021/04/17 09:34:59;;;;;;;7.57;4.90;;;14.50;48.00;;;;;;5038624;28;20022;-72
2021/04/17 09:37:31;;;;;;;5.55;4.70;;;14.20;45.30;;;;;;5038704;28;20026;-72
2021/04/17 09:39:57;;;;;;;8.15;4.78;;;13.90;46.40;;;;;;5038522;28;20048;-72
2021/04/17 09:42:32;;;;;;;7.40;5.20;;;13.70;48.60;;;;;;5038615;28;20041;-72
2021/04/17 09:44:58;;;;;;;7.78;5.60;;;13.70;47.70;;;;;;5038241;28;20021;-72
2021/04/17 09:47:23;;;;;;;9.48;6.03;;;13.50;47.00;;;;;;5038529;28;20119;-72
2021/04/17 09:49:50;;;;;;;8.77;6.20;;;13.20;47.50;;;;;;5038456;28;20049;-72
2021/04/17 09:52:21;;;;;;;7.30;5.97;;;13.00;49.80;;;;;;5038429;28;20432;-72
2021/04/17 09:55:01;;;;;;;8.38;5.95;;;12.70;50.50;;;;;;5038459;28;20441;-72
2021/04/17 09:57:28;;;;;;;9.63;6.40;;;12.60;49.50;;;;;;5038335;28;20021;-72
2021/04/17 09:59:59;;;;;;;9.52;6.72;;;12.50;50.10;;;;;;5037975;28;20030;-72
2021/04/17 10:02:48;;;;;;;8.88;6.28;;;12.30;53.80;;;;;;5037902;28;20030;-72
2021/04/17 10:05:29;;;;;;;9.65;6.35;;;12.30;48.90;;;;;;5038169;28;20025;-72
2021/04/17 10:07:56;;;;;;;9.90;7.20;;;12.30;52.80;;;;;;5038200;28;20064;-72
2021/04/17 10:10:22;;;;;;;10.45;6.70;;;12.50;49.90;;;;;;5038008;28;20034;-72
2021/04/17 10:12:53;;;;;;;11.48;7.43;;;12.80;51.40;;;;;;5037161;28;20030;-72
2021/04/17 10:15:23;;;;;;;9.48;6.72;;;13.10;51.20;;;;;;5042001;28;20139;-72
2021/04/17 10:18:00;;;;;;;9.07;6.53;;;13.20;53.70;;;;;;5053045;28;20025;-72
2021/04/17 10:20:27;;;;;;;9.82;6.50;;;13.10;48.60;;;;;;5057450;28;20035;-72
2021/04/17 10:22:54;;;;;;;10.00;6.72;;;13.00;48.50;;;;;;5057310;28;20078;-72
2021/04/17 10:25:36;;;;;;;8.52;6.80;;;12.60;51.40;;;;;;5057359;28;20052;-72
2021/04/17 10:28:21;;;;;;;9.15;6.60;;;12.20;52.00;;;;;;5057675;28;20033;-72
2021/04/17 10:30:53;;;;;;;8.75;6.07;;;12.00;53.10;;;;;;5057232;28;20045;-72
2021/04/17 10:33:24;;;;;;;12.48;6.63;;;12.00;53.60;;;;;;5057225;28;20029;-72
2021/04/17 10:35:51;;;;;;;9.38;6.60;;;11.90;52.90;;;;;;5057204;28;20075;-72
2021/04/17 10:38:23;;;;;;;8.18;6.55;;;11.80;52.10;;;;;;5057162;28;20395;-72
2021/04/17 10:40:49;;;;;;;11.13;7.53;;;11.70;52.40;;;;;;5057491;28;20112;-72
2021/04/17 10:43:18;;;;;;;8.93;6.47;;;11.60;51.20;;;;;;5057423;28;20432;-72
2021/04/17 10:45:44;;;;;;;9.20;6.35;;;11.70;55.20;;;;;;5056855;28;20051;-72
2021/04/17 10:48:20;;;;;;;12.07;6.28;;;11.90;53.80;;;;;;5057323;28;20028;-72
2021/04/17 10:50:54;;;;;;;12.85;7.13;;;12.50;54.70;;;;;;5056951;28;20468;-72
2021/04/17 10:53:25;;;;;;;8.18;6.57;;;13.20;50.90;;;;;;5056871;28;20078;-72
2021/04/17 10:55:53;;;;;;;8.63;6.20;;;13.50;51.10;;;;;;5057185;28;20109;-72
2021/04/17 10:58:25;;;;;;;7.55;5.93;;;13.50;49.60;;;;;;5057167;28;20032;-72
2021/04/17 11:00:52;;;;;;;10.40;6.18;;;13.70;52.10;;;;;;5056848;28;20021;-72
2021/04/17 11:03:19;;;;;;;7.60;5.50;;;14.00;47.20;;;;;;5057054;28;20108;-72
2021/04/17 11:05:45;;;;;;;9.02;6.20;;;14.20;45.30;;;;;;5057102;28;20029;-72
2021/04/17 11:08:11;;;;;;;8.48;5.57;;;14.10;47.80;;;;;;5057012;28;20037;-72
2021/04/17 11:10:39;;;;;;;6.75;5.50;;;14.60;46.10;;;;;;5056624;28;20025;-72
2021/04/17 11:13:06;;;;;;;6.97;5.60;;;14.80;45.10;;;;;;5056975;28;20095;-72
2021/04/17 11:15:33;;;;;;;7.63;5.07;;;15.10;45.40;;;;;;5056575;28;20021;-72
2021/04/17 11:18:19;;;;;;;6.88;5.18;;;15.60;48.10;;;;;;5056910;28;20029;-72
2021/04/17 11:20:47;;;;;;;7.47;5.35;;;15.90;44.40;;;;;;5056906;28;20074;-72
2021/04/17 11:23:36;;;;;;;9.65;5.70;;;15.80;41.00;;;;;;5056789;28;20116;-72
2021/04/17 11:26:05;;;;;;;5.72;4.82;;;15.50;45.00;;;;;;5056256;28;20133;-72
2021/04/17 11:28:31;;;;;;;6.53;5.75;;;15.60;46.20;;;;;;5056493;28;20041;-72
2021/04/17 11:30:57;;;;;;;6.22;5.20;;;16.00;44.40;;;;;;5056523;28;20036;-72
2021/04/17 11:33:24;;;;;;;8.63;4.78;;;16.10;42.00;;;;;;5056730;28;20032;-72
2021/04/17 11:35:50;;;;;;;6.93;4.82;;;16.00;47.00;;;;;;5056436;28;20033;-72
2021/04/17 11:38:16;;;;;;;6.50;4.88;;;16.10;44.40;;;;;;5056449;28;20025;-72
2021/04/17 11:40:41;;;;;;;6.93;4.75;;;16.10;45.30;;;;;;5056418;28;20028;-72
2021/04/17 11:43:07;;;;;;;7.35;4.88;;;15.90;43.00;;;;;;5056394;28;20021;-72
2021/04/17 11:45:33;;;;;;;10.60;4.82;;;15.80;45.60;;;;;;5056286;28;20037;-72
2021/04/17 11:47:59;;;;;;;6.75;4.32;;;15.90;43.80;;;;;;5056263;28;20068;-72
2021/04/17 11:50:25;;;;;;;4.85;4.10;;;16.10;46.80;;;;;;5056288;28;20053;-72
2021/04/17 11:52:51;;;;;;;7.00;4.97;;;16.30;44.10;;;;;;5056595;28;20033;-72
2021/04/17 11:55:16;;;;;;;6.50;4.50;;;16.10;47.10;;;;;;5056159;28;20433;-72
2021/04/17 11:57:42;;;;;;;6.60;4.32;;;16.00;46.50;;;;;;5057986;28;20029;-72
2021/04/17 12:00:08;;;;;;;6.63;4.85;;;16.20;44.50;;;;;;5060228;28;20029;-72
2021/04/17 12:02:34;;;;;;;5.93;4.50;;;16.40;44.40;;;;;;5060085;28;20031;-72
2021/04/17 12:05:00;;;;;;;7.88;4.22;;;16.40;45.70;;;;;;5060338;28;20021;-72
2021/04/17 12:07:26;;;;;;;6.05;4.53;;;16.30;44.00;;;;;;5060101;28;20036;-72
2021/04/17 12:09:53;;;;;;;7.60;5.40;;;16.30;45.50;;;;;;5059925;28;20028;-72
2021/04/17 12:12:19;;;;;;;5.43;3.97;;;16.00;43.80;;;;;;5060230;28;20013;-72
2021/04/17 12:14:45;;;;;;;7.45;5.35;;;15.60;46.90;;;;;;5060123;28;20103;-72
2021/04/17 12:17:11;;;;;;;6.63;4.97;;;15.20;45.80;;;;;;5060234;28;20370;-72
2021/04/17 12:19:37;;;;;;;5.95;4.50;;;15.10;44.80;;;;;;5059841;28;20424;-72
2021/04/17 12:22:03;;;;;;;10.43;4.43;;;14.90;46.40;;;;;;5060090;28;20024;-72
2021/04/17 12:24:28;;;;;;;7.68;4.28;;;14.60;48.90;;;;;;5059903;28;20403;-72
2021/04/17 12:26:54;;;;;;;7.32;4.78;;;14.30;48.80;;;;;;5059675;28;20059;-72
2021/04/17 12:29:20;;;;;;;6.88;4.82;;;14.10;46.10;;;;;;5059888;28;20106;-72
2021/04/17 12:31:46;;;;;;;7.97;4.10;;;13.90;50.00;;;;;;5059903;28;20046;-72
2021/04/17 12:34:11;;;;;;;11.75;4.85;;;13.90;49.00;;;;;;5059829;28;20053;-72
2021/04/17 12:36:37;;;;;;;6.07;3.97;;;14.00;50.10;;;;;;5059809;28;20099;-72
2021/04/17 12:39:03;;;;;;;6.25;4.05;;;14.40;49.10;;;;;;5059775;28;20087;-72
2021/04/17 12:41:29;;;;;;;6.65;4.38;;;14.70;45.80;;;;;;5059408;28;20021;-72
2021/04/17 12:43:55;;;;;;;5.18;4.20;;;14.70;45.70;;;;;;5059666;28;20025;-72
2021/04/17 12:46:21;;;;;;;7.35;4.15;;;14.70;49.20;;;;;;5059392;28;20025;-72
2021/04/17 12:48:47;;;;;;;5.38;4.28;;;14.50;49.50;;;;;;5059242;28;20104;-72
2021/04/17 12:51:12;;;;;;;5.95;4.57;;;14.40;48.70;;;;;;5059680;28;20103;-72
2021/04/17 12:53:38;;;;;;;4.93;3.97;;;14.40;46.20;;;;;;5059278;28;20025;-72
2021/04/17 12:56:04;;;;;;;5.78;4.93;;;14.60;50.30;;;;;;5059516;28;20035;-72
2021/04/17 12:58:30;;;;;;;6.85;4.60;;;14.80;49.10;;;;;;5059405;28;20086;-72